sensor_id;sensor_type;location;lat;lon;timestamp;temperature;humidity
10046;DHT22;5063;50.878;4.742;2022-11-02T00:01:25;14.00;99.90
10046;DHT22;5063;50.878;4.742;2022-11-02T00:03:53;14.00;99.90
10046;DHT22;5063;50.878;4.742;2022-11-02T00:06:19;14.00;99.90
10046;DHT22;5063;50.878;4.742;2022-11-02T00:08:44;13.90;99.90
10046;DHT22;5063;50.878;4.742;2022-11-02T00:11:10;13.90;99.90
10046;DHT22;5063;50.878;4.742;2022-11-02T00:13:36;13.90;99.90
10046;DHT22;5063;50.878;4.742;2022-11-02T00:16:08;14.00;99.90
10046;DHT22;5063;50.878;4.742;2022-11-02T00:18:36;14.00;99.90
10046;DHT22;5063;50.878;4.742;2022-11-02T00:21:03;13.90;99.90
10046;DHT22;5063;50.878;4.742;2022-11-02T00:23:29;14.00;99.90
10046;DHT22;5063;50.878;4.742;2022-11-02T00:25:55;14.00;99.90
10046;DHT22;5063;50.878;4.742;2022-11-02T00:28:22;13.90;99.90
10046;DHT22;5063;50.878;4.742;2022-11-02T00:30:47;13.80;99.90
10046;DHT22;5063;50.878;4.742;2022-11-02T00:33:13;13.70;99.90
10046;DHT22;5063;50.878;4.742;2022-11-02T00:35:39;13.70;99.90
10046;DHT22;5063;50.878;4.742;2022-11-02T00:38:05;13.70;99.90
10046;DHT22;5063;50.878;4.742;2022-11-02T00:40:31;13.70;99.90
10046;DHT22;5063;50.878;4.742;2022-11-02T00:42:57;13.70;99.90
10046;DHT22;5063;50.878;4.742;2022-11-02T00:45:23;13.70;99.90
10046;DHT22;5063;50.878;4.742;2022-11-02T00:47:49;13.80;99.90
10046;DHT22;5063;50.878;4.742;2022-11-02T00:50:15;13.70;99.90
10046;DHT22;5063;50.878;4.742;2022-11-02T00:52:41;13.70;99.90
10046;DHT22;5063;50.878;4.742;2022-11-02T00:55:08;13.70;99.90
10046;DHT22;5063;50.878;4.742;2022-11-02T00:57:36;13.70;99.90
10046;DHT22;5063;50.878;4.742;2022-11-02T01:00:04;13.70;99.90
10046;DHT22;5063;50.878;4.742;2022-11-02T01:02:31;13.70;99.90
10046;DHT22;5063;50.878;4.742;2022-11-02T01:04:57;13.90;99.90
10046;DHT22;5063;50.878;4.742;2022-11-02T01:07:23;13.70;99.90
10046;DHT22;5063;50.878;4.742;2022-11-02T01:09:49;13.70;99.90
10046;DHT22;5063;50.878;4.742;2022-11-02T01:12:14;13.70;99.90
10046;DHT22;5063;50.878;4.742;2022-11-02T01:14:40;13.70;99.90
10046;DHT22;5063;50.878;4.742;2022-11-02T01:17:06;13.60;99.90
10046;DHT22;5063;50.878;4.742;2022-11-02T01:19:31;13.60;99.90
10046;DHT22;5063;50.878;4.742;2022-11-02T01:21:57;13.60;99.90
10046;DHT22;5063;50.878;4.742;2022-11-02T01:24:23;13.60;99.90
10046;DHT22;5063;50.878;4.742;2022-11-02T01:26:50;13.60;99.90
10046;DHT22;5063;50.878;4.742;2022-11-02T01:29:16;13.50;99.90
10046;DHT22;5063;50.878;4.742;2022-11-02T01:31:42;13.50;99.90
10046;DHT22;5063;50.878;4.742;2022-11-02T01:34:10;13.40;99.90
10046;DHT22;5063;50.878;4.742;2022-11-02T01:36:35;13.40;99.90
10046;DHT22;5063;50.878;4.742;2022-11-02T01:39:01;13.40;99.90
10046;DHT22;5063;50.878;4.742;2022-11-02T01:41:27;13.30;99.90
10046;DHT22;5063;50.878;4.742;2022-11-02T01:43:55;13.20;99.90
10046;DHT22;5063;50.878;4.742;2022-11-02T01:46:26;13.30;99.90
10046;DHT22;5063;50.878;4.742;2022-11-02T01:49:07;13.30;99.90
10046;DHT22;5063;50.878;4.742;2022-11-02T01:52:19;13.30;99.90
10046;DHT22;5063;50.878;4.742;2022-11-02T01:54:55;13.30;99.90
10046;DHT22;5063;50.878;4.742;2022-11-02T01:57:24;13.30;99.90
10046;DHT22;5063;50.878;4.742;2022-11-02T01:59:59;13.20;99.90
10046;DHT22;5063;50.878;4.742;2022-11-02T02:02:27;13.20;99.90
10046;DHT22;5063;50.878;4.742;2022-11-02T02:04:58;13.30;99.90
10046;DHT22;5063;50.878;4.742;2022-11-02T02:07:26;13.20;99.90
10046;DHT22;5063;50.878;4.742;2022-11-02T02:09:53;13.20;99.90
10046;DHT22;5063;50.878;4.742;2022-11-02T02:12:20;13.20;99.90
10046;DHT22;5063;50.878;4.742;2022-11-02T02:14:46;13.30;99.90
10046;DHT22;5063;50.878;4.742;2022-11-02T02:17:34;13.30;99.90
10046;DHT22;5063;50.878;4.742;2022-11-02T02:30:57;13.10;99.90
10046;DHT22;5063;50.878;4.742;2022-11-02T02:33:57;13.10;99.90
10046;DHT22;5063;50.878;4.742;2022-11-02T02:36:24;13.10;99.90
10046;DHT22;5063;50.878;4.742;2022-11-02T02:38:55;13.10;99.90
10046;DHT22;5063;50.878;4.742;2022-11-02T02:41:49;13.30;99.90
10046;DHT22;5063;50.878;4.742;2022-11-02T02:44:25;13.40;99.90
10046;DHT22;5063;50.878;4.742;2022-11-02T02:46:58;13.30;99.90
10046;DHT22;5063;50.878;4.742;2022-11-02T02:49:31;13.30;99.90
10046;DHT22;5063;50.878;4.742;2022-11-02T02:51:59;13.30;99.90
10046;DHT22;5063;50.878;4.742;2022-11-02T02:54:31;13.10;99.90
10046;DHT22;5063;50.878;4.742;2022-11-02T02:57:05;13.00;99.90
10046;DHT22;5063;50.878;4.742;2022-11-02T02:59:40;12.90;99.90
10046;DHT22;5063;50.878;4.742;2022-11-02T03:02:09;12.90;99.90
10046;DHT22;5063;50.878;4.742;2022-11-02T03:04:36;12.90;99.90
10046;DHT22;5063;50.878;4.742;2022-11-02T03:07:02;12.90;99.90
10046;DHT22;5063;50.878;4.742;2022-11-02T03:09:47;12.90;99.90
10046;DHT22;5063;50.878;4.742;2022-11-02T03:18:11;12.90;99.90
10046;DHT22;5063;50.878;4.742;2022-11-02T03:20:57;12.90;99.90
10046;DHT22;5063;50.878;4.742;2022-11-02T03:23:40;12.90;99.90
10046;DHT22;5063;50.878;4.742;2022-11-02T03:26:30;12.90;99.90
10046;DHT22;5063;50.878;4.742;2022-11-02T03:31:52;12.90;99.90
10046;DHT22;5063;50.878;4.742;2022-11-02T03:34:28;13.00;99.90
10046;DHT22;5063;50.878;4.742;2022-11-02T03:37:01;13.00;99.90
10046;DHT22;5063;50.878;4.742;2022-11-02T03:39:37;13.00;99.90
10046;DHT22;5063;50.878;4.742;2022-11-02T03:42:03;13.00;99.90
10046;DHT22;5063;50.878;4.742;2022-11-02T03:44:34;13.00;99.90
10046;DHT22;5063;50.878;4.742;2022-11-02T03:47:03;13.00;99.90
10046;DHT22;5063;50.878;4.742;2022-11-02T03:49:30;12.90;99.90
10046;DHT22;5063;50.878;4.742;2022-11-02T03:52:00;12.90;99.90
10046;DHT22;5063;50.878;4.742;2022-11-02T03:56:56;12.80;99.90
10046;DHT22;5063;50.878;4.742;2022-11-02T03:59:23;12.80;99.90
10046;DHT22;5063;50.878;4.742;2022-11-02T04:01:50;12.80;99.90
10046;DHT22;5063;50.878;4.742;2022-11-02T04:04:17;12.80;99.90
10046;DHT22;5063;50.878;4.742;2022-11-02T04:06:44;12.70;99.90
10046;DHT22;5063;50.878;4.742;2022-11-02T04:09:12;12.70;99.90
10046;DHT22;5063;50.878;4.742;2022-11-02T04:11:38;12.70;99.90
10046;DHT22;5063;50.878;4.742;2022-11-02T04:14:22;12.70;99.90
10046;DHT22;5063;50.878;4.742;2022-11-02T04:17:03;12.70;99.90
10046;DHT22;5063;50.878;4.742;2022-11-02T04:19:49;12.70;99.90
10046;DHT22;5063;50.878;4.742;2022-11-02T04:22:15;12.70;99.90
10046;DHT22;5063;50.878;4.742;2022-11-02T04:24:59;12.60;99.90
10046;DHT22;5063;50.878;4.742;2022-11-02T04:27:40;12.60;99.90
10046;DHT22;5063;50.878;4.742;2022-11-02T04:30:07;12.60;99.90
10046;DHT22;5063;50.878;4.742;2022-11-02T04:32:37;12.70;99.90
10046;DHT22;5063;50.878;4.742;2022-11-02T04:35:21;12.60;99.90
10046;DHT22;5063;50.878;4.742;2022-11-02T04:37:47;12.50;99.90
10046;DHT22;5063;50.878;4.742;2022-11-02T04:40:31;12.50;99.90
10046;DHT22;5063;50.878;4.742;2022-11-02T04:42:57;12.60;99.90
10046;DHT22;5063;50.878;4.742;2022-11-02T04:45:23;12.70;99.90
10046;DHT22;5063;50.878;4.742;2022-11-02T04:47:48;12.50;99.90
10046;DHT22;5063;50.878;4.742;2022-11-02T04:50:14;12.50;99.90
10046;DHT22;5063;50.878;4.742;2022-11-02T04:52:40;12.50;99.90
10046;DHT22;5063;50.878;4.742;2022-11-02T04:55:06;12.50;99.90
10046;DHT22;5063;50.878;4.742;2022-11-02T04:57:32;12.50;99.90
10046;DHT22;5063;50.878;4.742;2022-11-02T04:59:57;12.50;99.90
10046;DHT22;5063;50.878;4.742;2022-11-02T05:02:23;12.60;99.90
10046;DHT22;5063;50.878;4.742;2022-11-02T05:04:49;12.60;99.90
10046;DHT22;5063;50.878;4.742;2022-11-02T05:07:14;12.60;99.90
10046;DHT22;5063;50.878;4.742;2022-11-02T05:09:40;12.60;99.90
10046;DHT22;5063;50.878;4.742;2022-11-02T05:12:08;12.50;99.90
10046;DHT22;5063;50.878;4.742;2022-11-02T05:14:34;12.40;99.90
10046;DHT22;5063;50.878;4.742;2022-11-02T05:17:00;12.40;99.90
10046;DHT22;5063;50.878;4.742;2022-11-02T05:19:26;12.30;99.90
10046;DHT22;5063;50.878;4.742;2022-11-02T05:21:52;12.20;99.90
10046;DHT22;5063;50.878;4.742;2022-11-02T05:24:17;12.20;99.90
10046;DHT22;5063;50.878;4.742;2022-11-02T05:26:43;12.10;99.90
10046;DHT22;5063;50.878;4.742;2022-11-02T05:29:09;12.10;99.90
10046;DHT22;5063;50.878;4.742;2022-11-02T05:31:34;12.10;99.90
10046;DHT22;5063;50.878;4.742;2022-11-02T05:34:00;12.00;99.90
10046;DHT22;5063;50.878;4.742;2022-11-02T05:36:26;12.00;99.90
10046;DHT22;5063;50.878;4.742;2022-11-02T05:38:52;11.90;99.90
10046;DHT22;5063;50.878;4.742;2022-11-02T05:41:19;11.90;99.90
10046;DHT22;5063;50.878;4.742;2022-11-02T05:43:44;11.80;99.90
10046;DHT22;5063;50.878;4.742;2022-11-02T05:46:10;11.80;99.90
10046;DHT22;5063;50.878;4.742;2022-11-02T05:48:39;11.80;99.90
10046;DHT22;5063;50.878;4.742;2022-11-02T05:51:05;11.90;99.90
10046;DHT22;5063;50.878;4.742;2022-11-02T05:53:31;11.70;99.90
10046;DHT22;5063;50.878;4.742;2022-11-02T05:55:59;11.70;99.90
10046;DHT22;5063;50.878;4.742;2022-11-02T05:58:26;11.70;99.90
10046;DHT22;5063;50.878;4.742;2022-11-02T06:00:52;11.70;99.90
10046;DHT22;5063;50.878;4.742;2022-11-02T06:03:19;11.70;99.90
10046;DHT22;5063;50.878;4.742;2022-11-02T06:05:45;11.80;99.90
10046;DHT22;5063;50.878;4.742;2022-11-02T06:08:11;11.80;99.90
10046;DHT22;5063;50.878;4.742;2022-11-02T06:10:36;11.80;99.90
10046;DHT22;5063;50.878;4.742;2022-11-02T06:13:03;11.70;99.90
10046;DHT22;5063;50.878;4.742;2022-11-02T06:15:30;11.70;99.90
10046;DHT22;5063;50.878;4.742;2022-11-02T06:17:56;11.70;99.90
10046;DHT22;5063;50.878;4.742;2022-11-02T06:20:22;11.60;99.90
10046;DHT22;5063;50.878;4.742;2022-11-02T06:22:49;11.60;99.90
10046;DHT22;5063;50.878;4.742;2022-11-02T06:25:15;11.60;99.90
10046;DHT22;5063;50.878;4.742;2022-11-02T06:27:49;11.60;99.90
10046;DHT22;5063;50.878;4.742;2022-11-02T06:30:16;11.60;99.90
10046;DHT22;5063;50.878;4.742;2022-11-02T06:32:49;11.60;99.90
10046;DHT22;5063;50.878;4.742;2022-11-02T06:35:16;11.60;99.90
10046;DHT22;5063;50.878;4.742;2022-11-02T06:37:43;11.60;99.90
10046;DHT22;5063;50.878;4.742;2022-11-02T06:40:10;11.60;99.90
10046;DHT22;5063;50.878;4.742;2022-11-02T06:42:36;11.50;99.90
10046;DHT22;5063;50.878;4.742;2022-11-02T06:45:02;11.50;99.90
10046;DHT22;5063;50.878;4.742;2022-11-02T06:47:30;11.50;99.90
10046;DHT22;5063;50.878;4.742;2022-11-02T06:49:57;11.60;99.90
10046;DHT22;5063;50.878;4.742;2022-11-02T06:52:23;11.60;99.90
10046;DHT22;5063;50.878;4.742;2022-11-02T06:54:48;11.60;99.90
10046;DHT22;5063;50.878;4.742;2022-11-02T06:57:14;11.60;99.90
10046;DHT22;5063;50.878;4.742;2022-11-02T06:59:40;11.60;99.90
10046;DHT22;5063;50.878;4.742;2022-11-02T07:02:07;11.60;99.90
10046;DHT22;5063;50.878;4.742;2022-11-02T07:04:33;11.60;99.90
10046;DHT22;5063;50.878;4.742;2022-11-02T07:06:59;11.60;99.90
10046;DHT22;5063;50.878;4.742;2022-11-02T07:09:25;11.60;99.90
10046;DHT22;5063;50.878;4.742;2022-11-02T07:11:51;11.60;99.90
10046;DHT22;5063;50.878;4.742;2022-11-02T07:14:16;11.60;99.90
10046;DHT22;5063;50.878;4.742;2022-11-02T07:16:42;11.70;99.90
10046;DHT22;5063;50.878;4.742;2022-11-02T07:19:08;11.70;99.90
10046;DHT22;5063;50.878;4.742;2022-11-02T07:21:34;11.80;99.90
10046;DHT22;5063;50.878;4.742;2022-11-02T07:24:00;11.80;99.90
10046;DHT22;5063;50.878;4.742;2022-11-02T07:26:25;11.80;99.90
10046;DHT22;5063;50.878;4.742;2022-11-02T07:28:51;11.90;99.90
10046;DHT22;5063;50.878;4.742;2022-11-02T07:31:17;11.80;99.90
10046;DHT22;5063;50.878;4.742;2022-11-02T07:33:43;11.90;99.90
10046;DHT22;5063;50.878;4.742;2022-11-02T07:36:09;12.00;99.90
10046;DHT22;5063;50.878;4.742;2022-11-02T07:38:35;12.00;99.90
10046;DHT22;5063;50.878;4.742;2022-11-02T07:41:00;12.00;99.90
10046;DHT22;5063;50.878;4.742;2022-11-02T07:43:27;11.90;99.90
10046;DHT22;5063;50.878;4.742;2022-11-02T07:45:53;11.90;99.90
10046;DHT22;5063;50.878;4.742;2022-11-02T07:48:19;12.00;99.90
10046;DHT22;5063;50.878;4.742;2022-11-02T07:50:45;12.10;99.90
10046;DHT22;5063;50.878;4.742;2022-11-02T07:53:11;12.10;99.90
10046;DHT22;5063;50.878;4.742;2022-11-02T07:55:37;12.20;99.90
10046;DHT22;5063;50.878;4.742;2022-11-02T07:58:05;12.30;99.90
10046;DHT22;5063;50.878;4.742;2022-11-02T08:00:37;12.30;99.90
10046;DHT22;5063;50.878;4.742;2022-11-02T08:03:05;12.30;99.90
10046;DHT22;5063;50.878;4.742;2022-11-02T08:05:33;12.70;99.90
10046;DHT22;5063;50.878;4.742;2022-11-02T08:08:05;12.90;99.90
10046;DHT22;5063;50.878;4.742;2022-11-02T08:10:33;13.20;99.90
10046;DHT22;5063;50.878;4.742;2022-11-02T08:12:59;13.10;99.90
10046;DHT22;5063;50.878;4.742;2022-11-02T08:15:25;13.20;99.90
10046;DHT22;5063;50.878;4.742;2022-11-02T08:20:29;13.20;99.90
10046;DHT22;5063;50.878;4.742;2022-11-02T08:22:55;13.30;99.90
10046;DHT22;5063;50.878;4.742;2022-11-02T08:25:21;13.50;99.90
10046;DHT22;5063;50.878;4.742;2022-11-02T08:27:47;13.40;99.90
10046;DHT22;5063;50.878;4.742;2022-11-02T08:30:13;13.20;99.90
10046;DHT22;5063;50.878;4.742;2022-11-02T08:32:38;13.00;99.90
10046;DHT22;5063;50.878;4.742;2022-11-02T08:35:05;12.90;99.90
10046;DHT22;5063;50.878;4.742;2022-11-02T08:37:31;13.00;99.90
10046;DHT22;5063;50.878;4.742;2022-11-02T08:39:57;12.90;99.90
10046;DHT22;5063;50.878;4.742;2022-11-02T08:42:23;12.90;99.90
10046;DHT22;5063;50.878;4.742;2022-11-02T08:44:48;12.80;99.90
10046;DHT22;5063;50.878;4.742;2022-11-02T08:47:14;12.80;99.90
10046;DHT22;5063;50.878;4.742;2022-11-02T08:49:40;12.90;99.90
10046;DHT22;5063;50.878;4.742;2022-11-02T08:52:06;13.00;99.90
10046;DHT22;5063;50.878;4.742;2022-11-02T08:54:32;13.10;99.90
10046;DHT22;5063;50.878;4.742;2022-11-02T08:56:57;13.20;99.90
10046;DHT22;5063;50.878;4.742;2022-11-02T08:59:23;13.20;99.90
10046;DHT22;5063;50.878;4.742;2022-11-02T09:01:49;13.20;99.90
10046;DHT22;5063;50.878;4.742;2022-11-02T09:04:15;13.30;99.90
10046;DHT22;5063;50.878;4.742;2022-11-02T09:06:41;13.50;99.90
10046;DHT22;5063;50.878;4.742;2022-11-02T09:09:06;13.60;99.90
10046;DHT22;5063;50.878;4.742;2022-11-02T09:11:32;13.70;99.90
10046;DHT22;5063;50.878;4.742;2022-11-02T09:13:58;13.70;99.90
10046;DHT22;5063;50.878;4.742;2022-11-02T09:16:23;13.60;99.90
10046;DHT22;5063;50.878;4.742;2022-11-02T09:18:49;13.60;99.90
10046;DHT22;5063;50.878;4.742;2022-11-02T09:21:15;13.70;99.90
10046;DHT22;5063;50.878;4.742;2022-11-02T09:23:40;13.70;99.90
10046;DHT22;5063;50.878;4.742;2022-11-02T09:26:06;13.80;99.90
10046;DHT22;5063;50.878;4.742;2022-11-02T09:28:32;13.80;99.90
10046;DHT22;5063;50.878;4.742;2022-11-02T09:30:57;13.70;99.90
10046;DHT22;5063;50.878;4.742;2022-11-02T09:33:23;13.80;99.90
10046;DHT22;5063;50.878;4.742;2022-11-02T09:35:49;13.70;99.90
10046;DHT22;5063;50.878;4.742;2022-11-02T09:38:16;13.80;99.90
10046;DHT22;5063;50.878;4.742;2022-11-02T09:41:02;13.80;99.90
10046;DHT22;5063;50.878;4.742;2022-11-02T09:46:08;13.80;99.90
10046;DHT22;5063;50.878;4.742;2022-11-02T09:48:37;13.80;99.90
10046;DHT22;5063;50.878;4.742;2022-11-02T09:51:18;13.90;99.90
10046;DHT22;5063;50.878;4.742;2022-11-02T09:56:45;14.10;99.90
10046;DHT22;5063;50.878;4.742;2022-11-02T09:59:17;14.10;99.90
10046;DHT22;5063;50.878;4.742;2022-11-02T10:08:14;14.10;99.90
10046;DHT22;5063;50.878;4.742;2022-11-02T10:16:18;14.30;99.90
10046;DHT22;5063;50.878;4.742;2022-11-02T10:18:47;14.40;99.90
10046;DHT22;5063;50.878;4.742;2022-11-02T10:21:28;14.40;99.90
10046;DHT22;5063;50.878;4.742;2022-11-02T10:23:59;14.30;99.90
10046;DHT22;5063;50.878;4.742;2022-11-02T10:26:27;14.30;99.90
10046;DHT22;5063;50.878;4.742;2022-11-02T10:28:58;14.40;99.90
10046;DHT22;5063;50.878;4.742;2022-11-02T10:31:33;14.50;99.90
10046;DHT22;5063;50.878;4.742;2022-11-02T10:34:19;14.50;99.90
10046;DHT22;5063;50.878;4.742;2022-11-02T10:47:18;14.60;99.90
10046;DHT22;5063;50.878;4.742;2022-11-02T10:52:41;14.70;99.90
10046;DHT22;5063;50.878;4.742;2022-11-02T10:55:33;14.70;99.90
10046;DHT22;5063;50.878;4.742;2022-11-02T10:58:03;14.90;99.90
10046;DHT22;5063;50.878;4.742;2022-11-02T11:00:35;14.80;99.90
10046;DHT22;5063;50.878;4.742;2022-11-02T11:03:06;14.90;99.90
10046;DHT22;5063;50.878;4.742;2022-11-02T11:05:38;14.90;99.90
10046;DHT22;5063;50.878;4.742;2022-11-02T11:10:54;14.90;99.90
10046;DHT22;5063;50.878;4.742;2022-11-02T11:13:22;14.90;99.90
10046;DHT22;5063;50.878;4.742;2022-11-02T11:15:51;14.90;99.90
10046;DHT22;5063;50.878;4.742;2022-11-02T11:18:19;15.00;99.90
10046;DHT22;5063;50.878;4.742;2022-11-02T11:20:45;14.80;99.90
10046;DHT22;5063;50.878;4.742;2022-11-02T11:23:19;14.90;99.90
10046;DHT22;5063;50.878;4.742;2022-11-02T11:26:05;15.20;99.90
10046;DHT22;5063;50.878;4.742;2022-11-02T11:28:40;15.40;99.90
10046;DHT22;5063;50.878;4.742;2022-11-02T11:31:17;15.60;99.90
10046;DHT22;5063;50.878;4.742;2022-11-02T11:33:46;15.70;99.90
10046;DHT22;5063;50.878;4.742;2022-11-02T11:36:39;16.00;99.90
10046;DHT22;5063;50.878;4.742;2022-11-02T11:41:49;16.30;99.90
10046;DHT22;5063;50.878;4.742;2022-11-02T11:44:15;16.20;99.90
10046;DHT22;5063;50.878;4.742;2022-11-02T11:46:59;16.10;99.90
10046;DHT22;5063;50.878;4.742;2022-11-02T11:49:33;16.20;99.90
10046;DHT22;5063;50.878;4.742;2022-11-02T11:52:01;16.20;99.90
10046;DHT22;5063;50.878;4.742;2022-11-02T11:54:28;16.10;99.90
10046;DHT22;5063;50.878;4.742;2022-11-02T11:57:15;16.20;99.90
10046;DHT22;5063;50.878;4.742;2022-11-02T11:59:46;16.10;99.90
10046;DHT22;5063;50.878;4.742;2022-11-02T12:02:32;16.00;99.90
10046;DHT22;5063;50.878;4.742;2022-11-02T12:05:14;15.90;99.90
10046;DHT22;5063;50.878;4.742;2022-11-02T12:07:50;16.00;99.90
10046;DHT22;5063;50.878;4.742;2022-11-02T12:11:12;16.00;99.90
10046;DHT22;5063;50.878;4.742;2022-11-02T12:21:57;16.50;99.90
10046;DHT22;5063;50.878;4.742;2022-11-02T12:35:07;16.40;99.90
10046;DHT22;5063;50.878;4.742;2022-11-02T12:40:35;16.90;99.90
10046;DHT22;5063;50.878;4.742;2022-11-02T12:46:04;16.80;99.90
10046;DHT22;5063;50.878;4.742;2022-11-02T12:48:46;16.80;99.90
10046;DHT22;5063;50.878;4.742;2022-11-02T12:51:38;16.70;99.90
10046;DHT22;5063;50.878;4.742;2022-11-02T12:54:17;16.70;99.90
10046;DHT22;5063;50.878;4.742;2022-11-02T12:56:50;16.70;99.90
10046;DHT22;5063;50.878;4.742;2022-11-02T12:59:26;16.50;99.90
10046;DHT22;5063;50.878;4.742;2022-11-02T13:02:15;16.50;99.90
10046;DHT22;5063;50.878;4.742;2022-11-02T13:07:21;16.30;99.90
10046;DHT22;5063;50.878;4.742;2022-11-02T13:10:13;16.30;99.90
10046;DHT22;5063;50.878;4.742;2022-11-02T13:12:40;16.00;99.90
10046;DHT22;5063;50.878;4.742;2022-11-02T13:15:14;16.00;99.90
10046;DHT22;5063;50.878;4.742;2022-11-02T13:17:48;16.20;99.90
10046;DHT22;5063;50.878;4.742;2022-11-02T13:20:19;16.50;99.90
10046;DHT22;5063;50.878;4.742;2022-11-02T13:22:54;16.40;99.90
10046;DHT22;5063;50.878;4.742;2022-11-02T13:25:26;16.30;99.90
10046;DHT22;5063;50.878;4.742;2022-11-02T13:27:57;16.20;99.90
10046;DHT22;5063;50.878;4.742;2022-11-02T13:30:25;16.30;99.90
10046;DHT22;5063;50.878;4.742;2022-11-02T13:35:36;16.10;99.90
10046;DHT22;5063;50.878;4.742;2022-11-02T13:40:42;16.10;99.90
10046;DHT22;5063;50.878;4.742;2022-11-02T13:46:04;15.70;99.90
10046;DHT22;5063;50.878;4.742;2022-11-02T13:51:30;15.40;99.90
10046;DHT22;5063;50.878;4.742;2022-11-02T13:54:20;15.40;99.90
10046;DHT22;5063;50.878;4.742;2022-11-02T13:56:52;15.40;99.90
10046;DHT22;5063;50.878;4.742;2022-11-02T13:59:34;15.50;99.90
10046;DHT22;5063;50.878;4.742;2022-11-02T14:02:05;15.60;99.90
10046;DHT22;5063;50.878;4.742;2022-11-02T14:04:38;15.60;99.90
10046;DHT22;5063;50.878;4.742;2022-11-02T14:07:19;15.70;99.90
10046;DHT22;5063;50.878;4.742;2022-11-02T14:09:46;15.80;99.90
10046;DHT22;5063;50.878;4.742;2022-11-02T14:12:39;15.80;99.90
10046;DHT22;5063;50.878;4.742;2022-11-02T14:25:48;15.70;99.90
10046;DHT22;5063;50.878;4.742;2022-11-02T14:41:36;15.70;99.90
10046;DHT22;5063;50.878;4.742;2022-11-02T14:47:12;15.70;99.90
10046;DHT22;5063;50.878;4.742;2022-11-02T14:50:20;15.50;99.90
10046;DHT22;5063;50.878;4.742;2022-11-02T14:52:40;15.50;99.90
10046;DHT22;5063;50.878;4.742;2022-11-02T15:00:36;16.20;99.90
10046;DHT22;5063;50.878;4.742;2022-11-02T15:03:24;16.10;99.90
10046;DHT22;5063;50.878;4.742;2022-11-02T15:08:59;15.70;99.90
10046;DHT22;5063;50.878;4.742;2022-11-02T15:11:55;15.60;99.90
10046;DHT22;5063;50.878;4.742;2022-11-02T15:20:41;15.40;99.90
10046;DHT22;5063;50.878;4.742;2022-11-02T15:22:51;15.20;99.90
10046;DHT22;5063;50.878;4.742;2022-11-02T15:25:32;15.20;99.90
10046;DHT22;5063;50.878;4.742;2022-11-02T15:28:27;15.20;99.90
10046;DHT22;5063;50.878;4.742;2022-11-02T15:31:03;15.10;99.90
10046;DHT22;5063;50.878;4.742;2022-11-02T15:35:54;14.90;99.90
10046;DHT22;5063;50.878;4.742;2022-11-02T15:38:25;14.90;99.90
10046;DHT22;5063;50.878;4.742;2022-11-02T16:01:04;14.00;99.90
10046;DHT22;5063;50.878;4.742;2022-11-02T16:03:30;13.90;99.90
10046;DHT22;5063;50.878;4.742;2022-11-02T16:05:58;13.70;99.90
10046;DHT22;5063;50.878;4.742;2022-11-02T16:08:31;13.80;99.90
10046;DHT22;5063;50.878;4.742;2022-11-02T16:11:16;13.80;99.90
10046;DHT22;5063;50.878;4.742;2022-11-02T16:13:45;13.50;99.90
10046;DHT22;5063;50.878;4.742;2022-11-02T16:16:13;13.40;99.90
10046;DHT22;5063;50.878;4.742;2022-11-02T16:18:41;13.20;99.90
10046;DHT22;5063;50.878;4.742;2022-11-02T16:21:11;13.10;99.90
10046;DHT22;5063;50.878;4.742;2022-11-02T16:23:45;13.10;99.90
10046;DHT22;5063;50.878;4.742;2022-11-02T16:26:17;12.90;99.90
10046;DHT22;5063;50.878;4.742;2022-11-02T16:28:52;12.90;99.90
10046;DHT22;5063;50.878;4.742;2022-11-02T16:31:22;12.80;99.90
10046;DHT22;5063;50.878;4.742;2022-11-02T16:33:51;12.80;99.90
10046;DHT22;5063;50.878;4.742;2022-11-02T16:36:20;12.70;99.90
10046;DHT22;5063;50.878;4.742;2022-11-02T16:38:59;12.80;99.90
10046;DHT22;5063;50.878;4.742;2022-11-02T16:41:28;12.70;99.90
10046;DHT22;5063;50.878;4.742;2022-11-02T16:43:55;12.70;99.90
10046;DHT22;5063;50.878;4.742;2022-11-02T16:46:46;12.60;99.90
10046;DHT22;5063;50.878;4.742;2022-11-02T16:49:13;12.60;99.90
10046;DHT22;5063;50.878;4.742;2022-11-02T16:51:46;12.50;99.90
10046;DHT22;5063;50.878;4.742;2022-11-02T16:56:51;12.30;99.90
10046;DHT22;5063;50.878;4.742;2022-11-02T16:59:17;12.30;99.90
10046;DHT22;5063;50.878;4.742;2022-11-02T17:01:43;12.50;99.90
10046;DHT22;5063;50.878;4.742;2022-11-02T17:04:23;12.30;99.90
10046;DHT22;5063;50.878;4.742;2022-11-02T17:06:53;12.20;99.90
10046;DHT22;5063;50.878;4.742;2022-11-02T17:11:53;12.30;99.90
10046;DHT22;5063;50.878;4.742;2022-11-02T17:14:21;12.20;99.90
10046;DHT22;5063;50.878;4.742;2022-11-02T17:16:59;12.20;99.90
10046;DHT22;5063;50.878;4.742;2022-11-02T17:19:42;12.10;99.90
10046;DHT22;5063;50.878;4.742;2022-11-02T17:22:26;12.10;99.90
10046;DHT22;5063;50.878;4.742;2022-11-02T17:25:38;12.10;99.90
10046;DHT22;5063;50.878;4.742;2022-11-02T17:30:59;12.00;99.90
10046;DHT22;5063;50.878;4.742;2022-11-02T17:33:28;12.00;99.90
10046;DHT22;5063;50.878;4.742;2022-11-02T17:36:01;12.10;99.90
10046;DHT22;5063;50.878;4.742;2022-11-02T17:38:28;12.00;99.90
10046;DHT22;5063;50.878;4.742;2022-11-02T17:40:54;12.00;99.90
10046;DHT22;5063;50.878;4.742;2022-11-02T17:43:21;12.10;99.90
10046;DHT22;5063;50.878;4.742;2022-11-02T17:45:58;12.10;99.90
10046;DHT22;5063;50.878;4.742;2022-11-02T17:48:25;12.20;99.90
10046;DHT22;5063;50.878;4.742;2022-11-02T17:50:55;12.40;99.90
10046;DHT22;5063;50.878;4.742;2022-11-02T17:53:22;12.30;99.90
10046;DHT22;5063;50.878;4.742;2022-11-02T17:55:48;12.40;99.90
10046;DHT22;5063;50.878;4.742;2022-11-02T17:58:14;12.40;99.90
10046;DHT22;5063;50.878;4.742;2022-11-02T18:00:41;12.40;99.90
10046;DHT22;5063;50.878;4.742;2022-11-02T18:03:14;12.40;99.90
10046;DHT22;5063;50.878;4.742;2022-11-02T18:05:41;12.40;99.90
10046;DHT22;5063;50.878;4.742;2022-11-02T18:08:07;12.40;99.90
10046;DHT22;5063;50.878;4.742;2022-11-02T18:10:40;12.40;99.90
10046;DHT22;5063;50.878;4.742;2022-11-02T18:13:14;12.40;99.90
10046;DHT22;5063;50.878;4.742;2022-11-02T18:15:41;12.40;99.90
10046;DHT22;5063;50.878;4.742;2022-11-02T18:18:07;12.40;99.90
10046;DHT22;5063;50.878;4.742;2022-11-02T18:20:33;12.40;99.90
10046;DHT22;5063;50.878;4.742;2022-11-02T18:22:59;12.40;99.90
10046;DHT22;5063;50.878;4.742;2022-11-02T18:25:27;12.40;99.90
10046;DHT22;5063;50.878;4.742;2022-11-02T18:27:57;12.30;99.90
10046;DHT22;5063;50.878;4.742;2022-11-02T18:30:24;12.40;99.90
10046;DHT22;5063;50.878;4.742;2022-11-02T18:32:55;12.30;99.90
10046;DHT22;5063;50.878;4.742;2022-11-02T18:35:22;12.30;99.90
10046;DHT22;5063;50.878;4.742;2022-11-02T18:37:48;12.30;99.90
10046;DHT22;5063;50.878;4.742;2022-11-02T18:40:16;12.30;99.90
10046;DHT22;5063;50.878;4.742;2022-11-02T18:42:43;12.20;99.90
10046;DHT22;5063;50.878;4.742;2022-11-02T18:45:11;12.10;99.90
10046;DHT22;5063;50.878;4.742;2022-11-02T18:47:37;12.20;99.90
10046;DHT22;5063;50.878;4.742;2022-11-02T18:50:04;12.10;99.90
10046;DHT22;5063;50.878;4.742;2022-11-02T18:52:31;12.10;99.90
10046;DHT22;5063;50.878;4.742;2022-11-02T18:54:56;12.10;99.90
10046;DHT22;5063;50.878;4.742;2022-11-02T18:57:22;12.20;99.90